Time;durP1;ratioP1;P1;durP2;ratioP2;P2;SDS_P1;SDS_P2;PMS_P1;PMS_P2;Temp;Humidity;BMP_temperature;BMP_pressure;BME280_temperature;BME280_humidity;BME280_pressure;Samples;Min_cycle;Max_cycle;Signal;HPM_P1;HPM_P2
2022/10/18 00:00:56;;;;;;;;;;;19.60;75.30;;;;;;4478460;32;19966;-69
2022/10/18 00:03:22;;;;;;;;;;;19.60;75.30;;;;;;4478238;32;19970;-69
2022/10/18 00:05:48;;;;;;;;;;;19.60;75.30;;;;;;4477907;32;19985;-69
2022/10/18 00:08:14;;;;;;;;;;;19.60;75.30;;;;;;4478201;32;19962;-69
2022/10/18 00:10:39;;;;;;;;;;;19.60;75.40;;;;;;4478399;32;20075;-69
2022/10/18 00:13:05;;;;;;;;;;;19.50;75.20;;;;;;4478264;32;20346;-69
2022/10/18 00:15:32;;;;;;;;;;;19.60;75.30;;;;;;4478135;32;19989;-69
2022/10/18 00:17:57;;;;;;;;;;;19.60;75.30;;;;;;4463960;32;19966;-69
2022/10/18 00:20:23;;;;;;;;;;;19.60;75.30;;;;;;4477973;32;19970;-69
2022/10/18 00:22:49;;;;;;;;;;;19.50;75.20;;;;;;4477685;32;19971;-69
2022/10/18 00:25:15;;;;;;;;;;;19.50;75.30;;;;;;4478157;32;19974;-70
2022/10/18 00:27:40;;;;;;;;;;;19.50;75.30;;;;;;4478148;32;19974;-69
2022/10/18 00:30:06;;;;;;;;;;;19.50;75.20;;;;;;4477622;32;20368;-70
2022/10/18 00:32:39;;;;;;;;;;;19.50;75.20;;;;;;4477819;32;20036;-69
2022/10/18 00:35:05;;;;;;;;;;;19.50;75.30;;;;;;4477791;32;19984;-69
2022/10/18 00:37:31;;;;;;;;;;;19.50;75.20;;;;;;4478063;32;19982;-69
2022/10/18 00:39:57;;;;;;;;;;;19.50;75.20;;;;;;4477724;32;19978;-69
2022/10/18 00:42:25;;;;;;;;;;;19.50;75.30;;;;;;4477673;32;20051;-69
2022/10/18 00:44:51;;;;;;;;;;;19.50;75.30;;;;;;4463549;32;20009;-69
2022/10/18 00:47:17;;;;;;;;;;;19.50;75.30;;;;;;4476907;32;19966;-70
2022/10/18 00:49:45;;;;;;;;;;;19.50;75.20;;;;;;4477525;32;19988;-69
2022/10/18 00:52:14;;;;;;;;;;;19.40;75.20;;;;;;4477857;32;20010;-69
2022/10/18 00:54:41;;;;;;;;;;;19.40;75.20;;;;;;4477429;32;19973;-70
2022/10/18 00:57:07;;;;;;;;;;;19.50;75.30;;;;;;4477449;32;19989;-70
2022/10/18 00:59:33;;;;;;;;;;;19.40;76.00;;;;;;4477340;32;19966;-70
2022/10/18 01:02:00;;;;;;;;;;;19.50;75.20;;;;;;4477067;32;19985;-69
2022/10/18 01:04:25;;;;;;;;;;;19.40;75.20;;;;;;4477433;32;19982;-69
2022/10/18 01:06:55;;;;;;;;;;;19.40;75.20;;;;;;4477924;32;20463;-70
2022/10/18 01:09:30;;;;;;;;;;;19.40;75.20;;;;;;4477289;32;20098;-69
2022/10/18 01:12:04;;;;;;;;;;;19.40;75.20;;;;;;4477551;32;20139;-70
2022/10/18 01:14:48;;;;;;;;;;;19.40;75.20;;;;;;4477382;32;20303;-69
2022/10/18 01:17:15;;;;;;;;;;;19.40;75.20;;;;;;4476981;32;19970;-69
2022/10/18 01:19:56;;;;;;;;;;;19.40;75.20;;;;;;4463080;32;20514;-70
2022/10/18 01:22:28;;;;;;;;;;;19.40;75.20;;;;;;4477158;32;20083;-70
2022/10/18 01:24:56;;;;;;;;;;;19.40;75.20;;;;;;4476917;32;20052;-69
2022/10/18 01:27:41;;;;;;;;;;;19.40;75.20;;;;;;4477296;32;19969;-70
2022/10/18 01:30:25;;;;;;;;;;;19.40;75.20;;;;;;4476673;32;19969;-69
2022/10/18 01:32:53;;;;;;;;;;;19.40;75.20;;;;;;4477295;32;20016;-69
2022/10/18 01:35:20;;;;;;;;;;;19.40;75.20;;;;;;4477196;32;20063;-70
2022/10/18 01:37:48;;;;;;;;;;;19.40;75.20;;;;;;4477006;32;19988;-69
2022/10/18 01:40:15;;;;;;;;;;;19.40;76.00;;;;;;4476571;32;19980;-70
2022/10/18 01:42:42;;;;;;;;;;;19.40;75.20;;;;;;4476914;32;19989;-69
2022/10/18 01:45:10;;;;;;;;;;;19.30;75.10;;;;;;4477115;32;20111;-70
2022/10/18 01:47:35;;;;;;;;;;;19.30;75.10;;;;;;4476575;32;20025;-69
2022/10/18 01:50:03;;;;;;;;;;;19.30;75.10;;;;;;4476857;32;20148;-69
2022/10/18 01:52:29;;;;;;;;;;;19.30;75.10;;;;;;4476830;32;19974;-70
2022/10/18 01:54:55;;;;;;;;;;;19.30;75.10;;;;;;4476718;32;20080;-70
2022/10/18 01:57:41;;;;;;;;;;;19.30;75.10;;;;;;4476681;32;20056;-74
2022/10/18 02:00:12;;;;;;;;;;;19.30;75.10;;;;;;4478849;32;19965;-69
2022/10/18 02:02:45;;;;;;;;;;;19.30;75.10;;;;;;4479970;32;20055;-69
2022/10/18 02:05:23;;;;;;;;;;;19.30;75.10;;;;;;4480007;32;19985;-70
2022/10/18 02:08:07;;;;;;;;;;;19.30;75.10;;;;;;4480039;32;20099;-72
2022/10/18 02:10:36;;;;;;;;;;;19.30;75.10;;;;;;4479896;32;20339;-69
2022/10/18 02:13:01;;;;;;;;;;;19.30;75.00;;;;;;4479900;32;20027;-69
2022/10/18 02:15:35;;;;;;;;;;;19.30;75.00;;;;;;4479841;32;19978;-69
2022/10/18 02:18:04;;;;;;;;;;;19.30;75.00;;;;;;4480069;32;20025;-70
2022/10/18 02:20:31;;;;;;;;;;;19.30;75.00;;;;;;4479778;32;20106;-69
2022/10/18 02:22:58;;;;;;;;;;;19.30;75.00;;;;;;4479808;32;19992;-69
2022/10/18 02:25:26;;;;;;;;;;;19.30;75.00;;;;;;4479719;32;19965;-70
2022/10/18 02:27:52;;;;;;;;;;;19.20;75.00;;;;;;4480057;32;20013;-70
2022/10/18 02:30:18;;;;;;;;;;;19.30;75.00;;;;;;4479104;32;19990;-69
2022/10/18 02:32:49;;;;;;;;;;;19.30;75.00;;;;;;4479803;32;20298;-69
2022/10/18 02:35:20;;;;;;;;;;;19.30;75.00;;;;;;4479574;32;19988;-69
2022/10/18 02:37:47;;;;;;;;;;;19.20;75.00;;;;;;4479553;32;20392;-70
2022/10/18 02:40:14;;;;;;;;;;;19.30;75.00;;;;;;4479524;32;20021;-69
2022/10/18 02:42:45;;;;;;;;;;;19.20;74.90;;;;;;4479496;32;19978;-69
2022/10/18 02:45:12;;;;;;;;;;;19.30;74.90;;;;;;4479712;32;20024;-69
2022/10/18 02:47:37;;;;;;;;;;;19.20;74.90;;;;;;4479074;32;19974;-70
2022/10/18 02:50:03;;;;;;;;;;;19.20;74.90;;;;;;4479388;32;20055;-69
2022/10/18 02:52:29;;;;;;;;;;;19.20;74.80;;;;;;4479331;32;19976;-69
2022/10/18 02:54:55;;;;;;;;;;;19.30;74.90;;;;;;4479217;32;20380;-70
2022/10/18 02:57:21;;;;;;;;;;;19.20;74.80;;;;;;4479331;32;19966;-69
2022/10/18 02:59:46;;;;;;;;;;;19.20;74.90;;;;;;4479165;32;19962;-69
2022/10/18 03:02:13;;;;;;;;;;;19.20;74.80;;;;;;4479346;32;19978;-70
2022/10/18 03:04:38;;;;;;;;;;;19.20;74.90;;;;;;4479147;32;19976;-70
2022/10/18 03:07:04;;;;;;;;;;;19.20;74.80;;;;;;4479424;32;19974;-69
2022/10/18 03:09:34;;;;;;;;;;;19.20;74.80;;;;;;4478846;32;19970;-70
2022/10/18 03:12:00;;;;;;;;;;;19.20;74.80;;;;;;4478818;32;19977;-69
2022/10/18 03:14:25;;;;;;;;;;;19.20;74.80;;;;;;4478938;32;19966;-69
2022/10/18 03:16:51;;;;;;;;;;;19.20;74.80;;;;;;4478986;32;20008;-69
2022/10/18 03:19:18;;;;;;;;;;;19.20;74.80;;;;;;4478885;32;20104;-69
2022/10/18 03:21:43;;;;;;;;;;;19.20;74.80;;;;;;4478605;32;19966;-69
2022/10/18 03:24:09;;;;;;;;;;;19.20;74.80;;;;;;4478597;32;20304;-70
2022/10/18 03:26:35;;;;;;;;;;;19.20;74.80;;;;;;4478761;32;20115;-69
2022/10/18 03:29:01;;;;;;;;;;;19.20;74.80;;;;;;4464688;32;19962;-69
2022/10/18 03:31:27;;;;;;;;;;;19.20;74.80;;;;;;4478400;32;20400;-69
2022/10/18 03:33:52;;;;;;;;;;;19.20;74.80;;;;;;4478611;32;19982;-70
2022/10/18 03:36:18;;;;;;;;;;;19.20;74.80;;;;;;4478447;32;20414;-70
2022/10/18 03:38:44;;;;;;;;;;;19.20;74.80;;;;;;4478594;32;20288;-69
2022/10/18 03:41:09;;;;;;;;;;;19.10;74.70;;;;;;4478783;32;20048;-70
2022/10/18 03:43:36;;;;;;;;;;;19.20;74.80;;;;;;4464841;32;19981;-69
2022/10/18 03:46:02;;;;;;;;;;;19.10;74.70;;;;;;4478560;32;20080;-69
2022/10/18 03:48:28;;;;;;;;;;;19.20;74.70;;;;;;4478189;32;20471;-69
2022/10/18 03:50:53;;;;;;;;;;;19.20;74.70;;;;;;4478483;32;19982;-69
2022/10/18 03:53:19;;;;;;;;;;;19.10;74.70;;;;;;4478348;32;19973;-70
2022/10/18 03:55:49;;;;;;;;;;;19.10;74.70;;;;;;4478145;32;19984;-69
2022/10/18 03:58:15;;;;;;;;;;;19.10;74.60;;;;;;4478344;32;20330;-72
2022/10/18 04:00:40;;;;;;;;;;;19.10;74.70;;;;;;4478247;32;19973;-70
2022/10/18 04:03:06;;;;;;;;;;;19.10;74.60;;;;;;4463897;32;20020;-70
2022/10/18 04:05:33;;;;;;;;;;;19.10;74.60;;;;;;4478030;32;20024;-69
2022/10/18 04:07:59;;;;;;;;;;;19.10;74.60;;;;;;4478234;32;19970;-70
2022/10/18 04:10:24;;;;;;;;;;;19.10;74.60;;;;;;4478214;32;20020;-70
2022/10/18 04:12:50;;;;;;;;;;;19.10;74.60;;;;;;4477892;32;19966;-69
2022/10/18 04:15:16;;;;;;;;;;;19.10;74.60;;;;;;4478061;32;20318;-69
2022/10/18 04:17:42;;;;;;;;;;;19.10;74.60;;;;;;4478513;32;19998;-69
2022/10/18 04:20:08;;;;;;;;;;;19.10;74.70;;;;;;4478346;32;20311;-69
2022/10/18 04:22:34;;;;;;;;;;;19.10;74.60;;;;;;4477003;32;20402;-69
2022/10/18 04:25:00;;;;;;;;;;;19.10;74.70;;;;;;4478150;32;19977;-69
2022/10/18 04:27:25;;;;;;;;;;;19.10;74.60;;;;;;4478092;32;19977;-69
2022/10/18 04:29:51;;;;;;;;;;;19.10;74.50;;;;;;4478158;32;20378;-71
2022/10/18 04:32:17;;;;;;;;;;;19.10;74.50;;;;;;4463716;32;19961;-69
2022/10/18 04:34:42;;;;;;;;;;;19.10;74.60;;;;;;4477741;32;20293;-69
2022/10/18 04:37:08;;;;;;;;;;;19.10;74.60;;;;;;4477759;32;20414;-69
2022/10/18 04:39:34;;;;;;;;;;;19.10;74.50;;;;;;4477758;32;20298;-70
2022/10/18 04:41:59;;;;;;;;;;;19.10;74.50;;;;;;4477738;32;20040;-70
2022/10/18 04:44:25;;;;;;;;;;;19.10;74.50;;;;;;4477885;32;19962;-69
2022/10/18 04:46:51;;;;;;;;;;;19.10;74.50;;;;;;4477323;32;20379;-69
2022/10/18 04:49:16;;;;;;;;;;;19.00;74.50;;;;;;4477667;32;20092;-70
2022/10/18 04:51:42;;;;;;;;;;;19.00;74.50;;;;;;4477955;32;20005;-69
2022/10/18 04:54:08;;;;;;;;;;;19.00;74.50;;;;;;4477339;32;19970;-69
2022/10/18 04:56:33;;;;;;;;;;;19.00;74.50;;;;;;4477697;32;20032;-69
2022/10/18 04:58:59;;;;;;;;;;;19.00;74.50;;;;;;4477735;32;20450;-70
2022/10/18 05:01:25;;;;;;;;;;;19.00;74.50;;;;;;4477387;32;20315;-69
2022/10/18 05:03:52;;;;;;;;;;;19.00;74.50;;;;;;4477389;32;20064;-70
2022/10/18 05:06:17;;;;;;;;;;;19.00;74.40;;;;;;4477336;32;19987;-70
2022/10/18 05:08:43;;;;;;;;;;;19.00;74.40;;;;;;4477344;32;19970;-69
2022/10/18 05:11:09;;;;;;;;;;;19.00;74.40;;;;;;4477343;32;20388;-69
2022/10/18 05:13:34;;;;;;;;;;;19.00;74.40;;;;;;4477278;32;20067;-69
2022/10/18 05:16:01;;;;;;;;;;;19.00;74.50;;;;;;4477603;32;19977;-71
2022/10/18 05:18:27;;;;;;;;;;;19.00;74.40;;;;;;4477471;32;19974;-70
2022/10/18 05:20:53;;;;;;;;;;;19.00;74.40;;;;;;4476948;32;19974;-70
2022/10/18 05:23:19;;;;;;;;;;;19.00;74.40;;;;;;4477181;32;19984;-70
2022/10/18 05:25:45;;;;;;;;;;;19.00;74.40;;;;;;4463325;32;20075;-69
2022/10/18 05:28:10;;;;;;;;;;;19.00;74.40;;;;;;4477164;32;20312;-70
2022/10/18 05:30:37;;;;;;;;;;;19.00;74.40;;;;;;4476799;32;20029;-70
2022/10/18 05:33:03;;;;;;;;;;;19.00;75.30;;;;;;4476799;32;19970;-70
2022/10/18 05:35:29;;;;;;;;;;;19.00;74.40;;;;;;4462896;32;19989;-70
2022/10/18 05:37:55;;;;;;;;;;;19.00;74.40;;;;;;4476731;32;20315;-70
2022/10/18 05:40:20;;;;;;;;;;;19.00;74.40;;;;;;4477129;32;20009;-70
2022/10/18 05:42:46;;;;;;;;;;;18.90;74.30;;;;;;4477127;32;20048;-69
2022/10/18 05:45:12;;;;;;;;;;;18.90;74.30;;;;;;4476901;32;20010;-69
2022/10/18 05:47:37;;;;;;;;;;;19.00;74.40;;;;;;4476749;32;20383;-70
2022/10/18 05:50:03;;;;;;;;;;;19.00;74.40;;;;;;4476877;32;19962;-70
2022/10/18 05:52:29;;;;;;;;;;;18.90;74.30;;;;;;4476609;32;19981;-70
2022/10/18 05:54:54;;;;;;;;;;;19.00;74.30;;;;;;4477093;32;19970;-70
2022/10/18 05:57:20;;;;;;;;;;;18.90;74.30;;;;;;4476634;32;19970;-70
2022/10/18 05:59:46;;;;;;;;;;;19.00;74.40;;;;;;4476765;32;19980;-69
2022/10/18 06:02:11;;;;;;;;;;;18.90;74.30;;;;;;4476779;32;20018;-69
2022/10/18 06:04:37;;;;;;;;;;;19.00;74.40;;;;;;4477087;32;20372;-69
2022/10/18 06:07:06;;;;;;;;;;;19.00;74.30;;;;;;4476970;32;19980;-70
2022/10/18 06:09:32;;;;;;;;;;;19.00;74.40;;;;;;4476760;32;20044;-69
2022/10/18 06:11:58;;;;;;;;;;;18.90;74.30;;;;;;4477086;32;20375;-70
2022/10/18 06:14:23;;;;;;;;;;;18.90;74.20;;;;;;4476933;32;20111;-69
2022/10/18 06:16:49;;;;;;;;;;;18.90;74.30;;;;;;4476970;32;19982;-70
2022/10/18 06:19:15;;;;;;;;;;;18.90;74.20;;;;;;4476689;32;19966;-69
2022/10/18 06:21:42;;;;;;;;;;;18.90;74.20;;;;;;4476681;32;19982;-69
2022/10/18 06:24:07;;;;;;;;;;;18.90;74.20;;;;;;4476884;32;20091;-70
2022/10/18 06:26:33;;;;;;;;;;;18.90;74.20;;;;;;4462408;32;20051;-70
2022/10/18 06:28:59;;;;;;;;;;;18.90;74.20;;;;;;4476607;32;19978;-69
2022/10/18 06:31:25;;;;;;;;;;;18.90;74.20;;;;;;4476111;32;19970;-69
2022/10/18 06:33:50;;;;;;;;;;;18.90;74.20;;;;;;4476749;32;19966;-69
2022/10/18 06:36:17;;;;;;;;;;;18.90;74.20;;;;;;4476588;32;20386;-69
2022/10/18 06:38:43;;;;;;;;;;;18.90;74.20;;;;;;4476836;32;20393;-69
2022/10/18 06:41:09;;;;;;;;;;;18.90;74.20;;;;;;4476604;32;19981;-70
2022/10/18 06:43:35;;;;;;;;;;;18.90;74.20;;;;;;4476551;32;20071;-70
2022/10/18 06:46:03;;;;;;;;;;;18.90;74.20;;;;;;4478642;32;19977;-70
2022/10/18 06:48:29;;;;;;;;;;;18.90;74.20;;;;;;4479390;32;19982;-70
2022/10/18 06:50:58;;;;;;;;;;;18.90;74.20;;;;;;4479398;32;20072;-70
2022/10/18 06:53:24;;;;;;;;;;;18.90;74.20;;;;;;4479194;32;20111;-70
2022/10/18 06:55:50;;;;;;;;;;;18.90;74.20;;;;;;4479610;32;19988;-70
2022/10/18 06:58:16;;;;;;;;;;;18.90;74.20;;;;;;4479429;32;19978;-69
2022/10/18 07:00:42;;;;;;;;;;;18.90;74.20;;;;;;4464814;32;20179;-69
2022/10/18 07:03:07;;;;;;;;;;;18.90;74.20;;;;;;4479205;32;19970;-69
2022/10/18 07:05:33;;;;;;;;;;;18.90;74.20;;;;;;4478906;32;19993;-69
2022/10/18 07:07:59;;;;;;;;;;;18.90;74.20;;;;;;4478871;32;20128;-69
2022/10/18 07:10:24;;;;;;;;;;;18.80;74.10;;;;;;4479412;32;20040;-69
2022/10/18 07:12:50;;;;;;;;;;;18.80;74.10;;;;;;4479364;32;20112;-69
2022/10/18 07:15:16;;;;;;;;;;;18.80;74.00;;;;;;4479028;32;20468;-69
2022/10/18 07:17:45;;;;;;;;;;;18.80;74.10;;;;;;4478698;32;20010;-69
2022/10/18 07:20:11;;;;;;;;;;;18.80;74.10;;;;;;4478930;32;19978;-69
2022/10/18 07:22:38;;;;;;;;;;;18.80;74.00;;;;;;4479067;32;20407;-70
2022/10/18 07:25:04;;;;;;;;;;;18.80;74.10;;;;;;4478613;32;20006;-71
2022/10/18 07:27:30;;;;;;;;;;;18.80;74.00;;;;;;4478809;32;20055;-71
2022/10/18 07:29:56;;;;;;;;;;;18.80;73.60;;;;;;4478755;32;19974;-71
2022/10/18 07:32:21;;;;;;;;;;;18.80;72.70;;;;;;4478548;32;20120;-71
2022/10/18 07:34:47;;;;;;;;;;;18.80;72.40;;;;;;4478937;32;19997;-69
2022/10/18 07:37:13;;;;;;;;;;;18.80;71.40;;;;;;4478687;32;19977;-69
2022/10/18 07:39:38;;;;;;;;;;;18.80;72.50;;;;;;4478461;32;19970;-69
2022/10/18 07:42:04;;;;;;;;;;;18.80;72.90;;;;;;4478607;32;19996;-70
2022/10/18 07:44:30;;;;;;;;;;;18.80;72.90;;;;;;4478782;32;20451;-73
2022/10/18 07:46:55;;;;;;;;;;;18.80;72.90;;;;;;4478812;32;20382;-70
2022/10/18 07:49:21;;;;;;;;;;;18.80;73.10;;;;;;4478260;32;20578;-70
2022/10/18 07:51:47;;;;;;;;;;;18.80;73.20;;;;;;4478476;32;19958;-69
2022/10/18 07:54:13;;;;;;;;;;;18.80;73.30;;;;;;4478586;32;19998;-70
2022/10/18 07:56:38;;;;;;;;;;;18.90;73.30;;;;;;4478342;32;20289;-71
2022/10/18 07:59:04;;;;;;;;;;;18.80;73.40;;;;;;4478752;32;20037;-70
2022/10/18 08:01:29;;;;;;;;;;;18.90;73.50;;;;;;4478316;32;19973;-70
2022/10/18 08:03:55;;;;;;;;;;;18.90;73.50;;;;;;4478265;32;20398;-70
2022/10/18 08:06:22;;;;;;;;;;;18.90;73.50;;;;;;4478365;32;20020;-72
2022/10/18 08:08:47;;;;;;;;;;;18.90;73.50;;;;;;4478487;32;19981;-74
2022/10/18 08:11:14;;;;;;;;;;;18.90;73.50;;;;;;4477922;32;20013;-70
2022/10/18 08:13:41;;;;;;;;;;;18.90;73.50;;;;;;4478180;32;19981;-71
2022/10/18 08:16:13;;;;;;;;;;;19.00;73.70;;;;;;4478155;32;19973;-71
2022/10/18 08:18:39;;;;;;;;;;;18.90;73.60;;;;;;4477876;32;19974;-71
2022/10/18 08:21:06;;;;;;;;;;;18.90;73.30;;;;;;4477872;32;19984;-72
2022/10/18 08:23:33;;;;;;;;;;;19.00;73.30;;;;;;4477783;32;20021;-71
2022/10/18 08:26:03;;;;;;;;;;;19.00;73.30;;;;;;4478188;32;19962;-71
2022/10/18 08:28:28;;;;;;;;;;;19.00;73.10;;;;;;4478772;32;19996;-72
2022/10/18 08:30:54;;;;;;;;;;;19.00;73.00;;;;;;4477900;32;20351;-73
2022/10/18 08:33:20;;;;;;;;;;;19.00;72.80;;;;;;4477730;32;20399;-72
2022/10/18 08:35:58;;;;;;;;;;;19.00;72.90;;;;;;4463747;32;19966;-71
2022/10/18 08:38:24;;;;;;;;;;;19.00;72.90;;;;;;4478067;32;20502;-71
2022/10/18 08:40:50;;;;;;;;;;;19.00;72.80;;;;;;4477768;32;20490;-72
2022/10/18 08:43:19;;;;;;;;;;;19.00;72.90;;;;;;4477453;32;19985;-72
2022/10/18 08:45:44;;;;;;;;;;;19.10;72.80;;;;;;4477337;32;19981;-71
2022/10/18 08:48:16;;;;;;;;;;;19.10;72.90;;;;;;4477779;32;19970;-71
2022/10/18 08:50:42;;;;;;;;;;;19.10;72.90;;;;;;4477660;32;19996;-71
2022/10/18 08:53:18;;;;;;;;;;;19.10;73.00;;;;;;4463577;32;19977;-71
2022/10/18 08:55:47;;;;;;;;;;;19.10;72.90;;;;;;4477173;32;19981;-71
2022/10/18 08:58:21;;;;;;;;;;;19.10;72.90;;;;;;4477852;32;20017;-71
2022/10/18 09:00:57;;;;;;;;;;;19.10;72.90;;;;;;4477407;32;19981;-71
2022/10/18 09:03:26;;;;;;;;;;;19.10;73.00;;;;;;4477919;32;20375;-75
2022/10/18 09:05:53;;;;;;;;;;;19.10;72.90;;;;;;4477365;32;20055;-72
2022/10/18 09:08:38;;;;;;;;;;;19.10;73.00;;;;;;4476651;32;19985;-72
2022/10/18 09:11:22;;;;;;;;;;;19.10;73.10;;;;;;4477336;32;20066;-72
2022/10/18 09:13:55;;;;;;;;;;;19.10;73.10;;;;;;4477320;32;19981;-72
2022/10/18 09:16:30;;;;;;;;;;;19.10;73.20;;;;;;4477361;32;19988;-72
2022/10/18 09:19:11;;;;;;;;;;;19.20;73.30;;;;;;4477464;32;19984;-72
2022/10/18 09:21:49;;;;;;;;;;;19.10;73.30;;;;;;4477655;32;20002;-71
2022/10/18 09:24:21;;;;;;;;;;;19.10;73.30;;;;;;4477208;32;19974;-71
2022/10/18 09:26:48;;;;;;;;;;;19.20;73.50;;;;;;4477502;32;19970;-71
2022/10/18 09:29:36;;;;;;;;;;;19.20;73.50;;;;;;4476845;32;20043;-72
2022/10/18 09:32:21;;;;;;;;;;;19.20;73.60;;;;;;4476970;32;19985;-72
2022/10/18 09:34:47;;;;;;;;;;;19.20;73.60;;;;;;4476665;32;19988;-72
2022/10/18 09:37:14;;;;;;;;;;;19.20;73.60;;;;;;4476990;32;20009;-72
2022/10/18 09:39:40;;;;;;;;;;;19.20;73.50;;;;;;4476909;32;20096;-72
2022/10/18 09:42:13;;;;;;;;;;;19.20;73.50;;;;;;4476868;32;20047;-72
2022/10/18 09:44:50;;;;;;;;;;;19.20;73.60;;;;;;4477091;32;19986;-72
2022/10/18 09:47:18;;;;;;;;;;;19.30;73.60;;;;;;4477054;32;19992;-72
2022/10/18 09:49:49;;;;;;;;;;;19.20;73.60;;;;;;4477045;32;20489;-72
2022/10/18 09:52:20;;;;;;;;;;;19.30;73.70;;;;;;4476831;32;20387;-71
2022/10/18 09:54:48;;;;;;;;;;;19.30;73.90;;;;;;4477121;32;19996;-72
2022/10/18 09:57:16;;;;;;;;;;;19.30;73.70;;;;;;4476513;32;20040;-72
2022/10/18 09:59:45;;;;;;;;;;;19.30;73.80;;;;;;4477050;32;20085;-72
2022/10/18 10:02:15;;;;;;;;;;;19.30;73.70;;;;;;4476361;32;20108;-72
2022/10/18 10:04:40;;;;;;;;;;;19.30;73.70;;;;;;4477099;32;20079;-72
2022/10/18 10:07:15;;;;;;;;;;;19.30;73.90;;;;;;4476605;32;20395;-72
2022/10/18 10:09:59;;;;;;;;;;;19.30;73.60;;;;;;4477155;32;19984;-71
2022/10/18 10:12:29;;;;;;;;;;;19.40;73.60;;;;;;4476932;32;19990;-72
2022/10/18 10:15:05;;;;;;;;;;;19.30;73.60;;;;;;4476719;32;20055;-73
2022/10/18 10:17:32;;;;;;;;;;;19.40;73.60;;;;;;4476868;32;19986;-72
2022/10/18 10:20:02;;;;;;;;;;;19.40;73.60;;;;;;4477504;32;19985;-73
2022/10/18 10:22:34;;;;;;;;;;;19.40;73.60;;;;;;4479543;32;20102;-73
2022/10/18 10:25:01;;;;;;;;;;;19.40;73.60;;;;;;4480184;32;19993;-73
2022/10/18 10:27:29;;;;;;;;;;;19.40;73.60;;;;;;4480627;32;19963;-72
2022/10/18 10:29:56;;;;;;;;;;;19.40;73.50;;;;;;4465929;32;19985;-72
2022/10/18 10:32:23;;;;;;;;;;;19.40;73.60;;;;;;4479428;32;19989;-73
2022/10/18 10:34:49;;;;;;;;;;;19.40;73.50;;;;;;4479434;32;19977;-72
2022/10/18 10:37:32;;;;;;;;;;;19.40;73.50;;;;;;4479679;32;20455;-72
2022/10/18 10:40:27;;;;;;;;;;;19.40;73.50;;;;;;4479860;32;19989;-73
2022/10/18 10:42:53;;;;;;;;;;;19.40;73.60;;;;;;4472435;32;20021;-72
2022/10/18 10:45:19;;;;;;;;;;;19.40;73.50;;;;;;4479312;32;20017;-72
2022/10/18 10:47:45;;;;;;;;;;;19.40;73.50;;;;;;4479469;32;20032;-72
2022/10/18 10:50:11;;;;;;;;;;;19.40;73.50;;;;;;4479402;32;20092;-72
2022/10/18 10:52:38;;;;;;;;;;;19.40;73.60;;;;;;4479630;32;20044;-72
2022/10/18 10:55:05;;;;;;;;;;;19.40;73.70;;;;;;4452329;32;19990;-72
2022/10/18 10:57:31;;;;;;;;;;;19.40;73.60;;;;;;4479442;32;19980;-72
2022/10/18 11:00:00;;;;;;;;;;;19.40;74.50;;;;;;4479284;32;19992;-72
2022/10/18 11:02:29;;;;;;;;;;;19.40;73.50;;;;;;4479045;32;19985;-72
2022/10/18 11:04:56;;;;;;;;;;;19.40;73.50;;;;;;4479254;32;20318;-72
2022/10/18 11:07:28;;;;;;;;;;;19.40;73.50;;;;;;4479010;32;19974;-72
2022/10/18 11:10:09;;;;;;;;;;;19.40;73.60;;;;;;4479362;32;19993;-72
2022/10/18 11:12:43;;;;;;;;;;;19.40;73.30;;;;;;4479157;32;20304;-75
2022/10/18 11:15:09;;;;;;;;;;;19.40;73.50;;;;;;4479237;32;19966;-74
2022/10/18 11:17:39;;;;;;;;;;;19.40;73.50;;;;;;4479235;32;19989;-73
2022/10/18 11:20:10;;;;;;;;;;;19.40;73.40;;;;;;4478929;32;19969;-73
2022/10/18 11:22:45;;;;;;;;;;;19.50;73.30;;;;;;4478848;32;20092;-74
2022/10/18 11:25:15;;;;;;;;;;;19.40;73.30;;;;;;4479181;32;19992;-74
2022/10/18 11:27:40;;;;;;;;;;;19.40;73.40;;;;;;4479047;32;20004;-73
2022/10/18 11:30:32;;;;;;;;;;;19.40;73.30;;;;;;4478955;32;20298;-73
2022/10/18 11:33:17;;;;;;;;;;;19.40;73.40;;;;;;4466069;32;19990;-75
2022/10/18 11:35:42;;;;;;;;;;;19.40;73.50;;;;;;4478654;32;20092;-73
2022/10/18 11:38:26;;;;;;;;;;;19.30;73.50;;;;;;4478725;32;19958;-74
2022/10/18 11:41:05;;;;;;;;;;;19.40;73.50;;;;;;4478960;32;19977;-74
2022/10/18 11:43:55;;;;;;;;;;;19.30;73.50;;;;;;4478908;32;19997;-74
2022/10/18 11:46:49;;;;;;;;;;;19.30;73.50;;;;;;4478961;32;19982;-74
2022/10/18 11:49:17;;;;;;;;;;;19.30;73.60;;;;;;4478841;32;20300;-74
2022/10/18 11:52:08;;;;;;;;;;;19.30;73.60;;;;;;4478914;32;20435;-74
2022/10/18 11:54:48;;;;;;;;;;;19.30;73.60;;;;;;4478718;32;20002;-72
2022/10/18 11:57:14;;;;;;;;;;;19.30;73.60;;;;;;4478592;32;20387;-74
2022/10/18 12:00:06;;;;;;;;;;;19.30;73.60;;;;;;4478807;32;19977;-74
2022/10/18 12:02:43;;;;;;;;;;;19.30;73.60;;;;;;4478000;32;19977;-74
2022/10/18 12:05:09;;;;;;;;;;;19.30;73.60;;;;;;4478182;32;19989;-74
2022/10/18 12:07:38;;;;;;;;;;;19.30;73.60;;;;;;4478401;32;20116;-73
2022/10/18 12:10:06;;;;;;;;;;;19.30;73.60;;;;;;4478031;32;19985;-73
2022/10/18 12:12:35;;;;;;;;;;;19.30;73.60;;;;;;4478462;32;20141;-73
2022/10/18 12:15:02;;;;;;;;;;;19.30;73.70;;;;;;4478164;32;19986;-74
2022/10/18 12:17:38;;;;;;;;;;;19.30;73.60;;;;;;4478395;32;20016;-73
2022/10/18 12:20:10;;;;;;;;;;;19.30;73.60;;;;;;4478124;32;20012;-73
2022/10/18 12:22:35;;;;;;;;;;;19.30;73.60;;;;;;4478440;32;20079;-73
2022/10/18 12:25:02;;;;;;;;;;;19.30;73.60;;;;;;4478090;32;20384;-74
2022/10/18 12:27:39;;;;;;;;;;;19.30;73.60;;;;;;4477728;32;19989;-73
2022/10/18 12:30:26;;;;;;;;;;;19.30;73.60;;;;;;4477894;32;19989;-73
2022/10/18 12:32:58;;;;;;;;;;;19.30;73.50;;;;;;4477753;32;19970;-72
2022/10/18 12:35:24;;;;;;;;;;;19.30;73.50;;;;;;4477787;32;20024;-73
2022/10/18 12:37:58;;;;;;;;;;;19.30;73.60;;;;;;4463715;32;20335;-73
2022/10/18 12:40:43;;;;;;;;;;;19.30;73.60;;;;;;4477872;32;20029;-73
2022/10/18 12:43:14;;;;;;;;;;;19.20;73.50;;;;;;4477229;32;20484;-72
2022/10/18 12:45:48;;;;;;;;;;;19.30;73.60;;;;;;4478121;32;20311;-73
2022/10/18 12:48:27;;;;;;;;;;;19.30;73.60;;;;;;4463732;32;20005;-73
2022/10/18 12:51:02;;;;;;;;;;;19.30;73.50;;;;;;4477914;32;20128;-73
2022/10/18 12:53:28;;;;;;;;;;;19.30;73.50;;;;;;4477879;32;20652;-74
2022/10/18 12:55:54;;;;;;;;;;;19.30;73.50;;;;;;4477519;32;20052;-74
2022/10/18 12:58:25;;;;;;;;;;;19.30;73.60;;;;;;4477550;32;19981;-73
2022/10/18 13:00:52;;;;;;;;;;;19.30;73.50;;;;;;4477824;32;20124;-73
2022/10/18 13:03:29;;;;;;;;;;;19.30;73.50;;;;;;4477670;32;20383;-73
2022/10/18 13:05:57;;;;;;;;;;;19.30;73.30;;;;;;4477770;32;19993;-73
2022/10/18 13:08:25;;;;;;;;;;;19.30;73.40;;;;;;4477139;32;19985;-73
2022/10/18 13:11:00;;;;;;;;;;;19.30;73.40;;;;;;4477175;32;19978;-74
2022/10/18 13:13:37;;;;;;;;;;;19.30;73.40;;;;;;4477366;32;20047;-73
2022/10/18 13:16:22;;;;;;;;;;;19.30;73.30;;;;;;4477593;32;20392;-74
2022/10/18 13:18:59;;;;;;;;;;;19.30;73.30;;;;;;4477669;32;19984;-74
2022/10/18 13:21:24;;;;;;;;;;;19.30;73.30;;;;;;4477203;32;20111;-74
2022/10/18 13:24:00;;;;;;;;;;;19.30;73.20;;;;;;4476889;32;20039;-74
2022/10/18 13:26:44;;;;;;;;;;;19.30;73.20;;;;;;4477540;32;19977;-74
2022/10/18 13:29:30;;;;;;;;;;;19.30;73.20;;;;;;4477198;32;20331;-74
2022/10/18 13:32:01;;;;;;;;;;;19.30;73.20;;;;;;4476957;32;20323;-74
2022/10/18 13:34:33;;;;;;;;;;;19.30;73.20;;;;;;4477217;32;19984;-73
2022/10/18 13:37:00;;;;;;;;;;;19.30;73.20;;;;;;4477551;32;20488;-73
2022/10/18 13:39:26;;;;;;;;;;;19.30;73.20;;;;;;4477076;32;19982;-74
2022/10/18 13:41:55;;;;;;;;;;;19.30;73.30;;;;;;4476798;32;20292;-74
2022/10/18 13:44:29;;;;;;;;;;;19.30;73.30;;;;;;4477193;32;19974;-74
2022/10/18 13:46:54;;;;;;;;;;;19.30;73.30;;;;;;4477183;32;19986;-74
2022/10/18 13:49:26;;;;;;;;;;;19.30;73.20;;;;;;4477315;32;19962;-74
2022/10/18 13:51:52;;;;;;;;;;;19.20;73.20;;;;;;4477026;32;19981;-74
2022/10/18 13:54:17;;;;;;;;;;;19.20;73.20;;;;;;4479031;32;19978;-73
2022/10/18 13:56:49;;;;;;;;;;;19.20;73.20;;;;;;4482252;32;19998;-73
2022/10/18 13:59:34;;;;;;;;;;;19.30;73.30;;;;;;4467973;32;20035;-73
2022/10/18 14:01:59;;;;;;;;;;;19.20;73.30;;;;;;4482308;32;19977;-74
2022/10/18 14:04:44;;;;;;;;;;;19.20;73.10;;;;;;4482324;32;19958;-73
2022/10/18 14:07:10;;;;;;;;;;;19.20;73.10;;;;;;4482434;32;19978;-74
2022/10/18 14:09:45;;;;;;;;;;;19.20;73.10;;;;;;4482313;32;19994;-73
2022/10/18 14:12:22;;;;;;;;;;;19.20;73.20;;;;;;4482050;32;20044;-73
2022/10/18 14:15:17;;;;;;;;;;;19.20;73.20;;;;;;4482073;32;19969;-73
2022/10/18 14:17:45;;;;;;;;;;;19.20;73.20;;;;;;4474802;32;19993;-73
2022/10/18 14:20:15;;;;;;;;;;;19.30;73.20;;;;;;4481933;32;19978;-73
2022/10/18 14:22:53;;;;;;;;;;;19.20;73.20;;;;;;4482437;32;20410;-74
2022/10/18 14:25:26;;;;;;;;;;;19.30;73.20;;;;;;4481973;32;19993;-75
2022/10/18 14:28:11;;;;;;;;;;;19.20;73.20;;;;;;4482132;32;20048;-73